(541)-479-2230 [email protected]

City of Grants Pass

Grants Pass AirportĀ 

Current Weather Conditions Medford Airport:
MEDFORD, OR
Metar
KMFR 202353Z 30007KT 2 1/2SM FU BKN031 OVC038 32/08 A2991 RMK AO2 SLP118 T03170078 10322 20217 56019

23:53 UTC

Wind: 300° 7kt

Visibility: 2.5 SM

Sky: BKN 3100 ft

Temp: 32 deg C / 89.6 deg F

Dewpoint: 8 deg C / 46.4 deg F

Pressure: 29.91 inHg

TAF
KMFR 202320Z 2100/2124 33012G18KT 2SM FU OVC030 FM210300 34007KT P6SM OVC035 FM210500 35008KT 5SM FU OVC035